createdAt,value
2023-05-01T00:00:07.635Z,0.51
2023-05-01T00:04:12.536Z,0.54
2023-05-01T00:07:58.213Z,0.58
2023-05-01T00:11:24.880Z,0.63
2023-05-01T00:15:20.662Z,0.60
2023-05-01T00:18:45.914Z,0.48
2023-05-01T00:22:42.372Z,0.41
2023-05-01T00:26:07.624Z,0.34
2023-05-01T00:29:44.533Z,0.39
2023-05-01T00:33:22.137Z,0.42
2023-05-01T00:37:18.762Z,0.36
2023-05-01T00:40:46.400Z,0.33
2023-05-01T00:44:41.192Z,0.22
2023-05-01T00:48:06.449Z,0.14
2023-05-01T00:52:02.361Z,0.14
2023-05-01T00:55:33.088Z,0.16
2023-05-01T00:59:05.765Z,0.12
2023-05-01T01:02:42.593Z,0.13
2023-05-01T01:06:51.993Z,0.16
2023-05-01T01:10:47.589Z,0.18
2023-05-01T01:14:25.063Z,0.18
2023-05-01T01:18:25.586Z,0.24
2023-05-01T01:21:54.560Z,0.30
2023-05-01T01:26:14.004Z,0.32
2023-05-01T01:29:58.026Z,0.22
2023-05-01T01:33:39.496Z,0.15
2023-05-01T01:37:14.058Z,0.09
2023-05-01T01:41:09.237Z,0.02
2023-05-01T01:44:55.341Z,-0.11
2023-05-01T01:48:26.358Z,-0.09
2023-05-01T01:52:18.198Z,0.03
2023-05-01T01:56:06.591Z,0.11
2023-05-01T01:59:51.262Z,0.24
2023-05-01T02:03:27.280Z,0.24
2023-05-01T02:06:58.259Z,0.04
2023-05-01T02:10:52.016Z,-0.25
2023-05-01T02:14:18.577Z,-0.43
2023-05-01T02:17:55.116Z,-0.41
2023-05-01T02:21:53.216Z,-0.39
2023-05-01T02:25:39.320Z,-0.40
2023-05-01T02:29:24.880Z,-0.41
2023-05-01T02:33:08.530Z,-0.32
2023-05-01T02:36:52.803Z,-0.21
2023-05-01T02:40:40.890Z,-0.11
2023-05-01T02:44:12.959Z,-0.04
2023-05-01T02:47:46.000Z,0.01
2023-05-01T02:51:24.203Z,0.02
2023-05-01T02:55:18.397Z,-0.03
2023-05-01T02:58:44.527Z,-0.13
2023-05-01T03:02:22.253Z,-0.23
2023-05-01T03:06:18.798Z,-0.33
2023-05-01T03:09:44.180Z,-0.48
2023-05-01T03:13:22.202Z,-0.52
2023-05-01T03:17:03.310Z,-0.56
2023-05-01T03:20:55.473Z,-0.55
2023-05-01T03:24:44.000Z,-0.56
2023-05-01T03:28:33.551Z,-0.53
2023-05-01T03:31:58.391Z,-0.53
2023-05-01T03:35:35.623Z,-0.46
2023-05-01T03:39:31.858Z,-0.37
2023-05-01T03:43:32.086Z,-0.29
2023-05-01T03:47:28.632Z,-0.33
2023-05-01T03:51:11.845Z,-0.39
2023-05-01T03:54:56.532Z,-0.38
2023-05-01T03:58:50.086Z,-0.35
2023-05-01T04:02:14.534Z,-0.31
2023-05-01T04:06:12.571Z,-0.24
2023-05-01T04:09:37.392Z,-0.08
2023-05-01T04:13:33.615Z,0.06
2023-05-01T04:17:18.591Z,0.17
2023-05-01T04:21:01.886Z,0.19
2023-05-01T04:24:45.485Z,0.23
2023-05-01T04:28:30.388Z,0.25
2023-05-01T04:31:58.900Z,0.20
2023-05-01T04:35:33.828Z,0.25
2023-05-01T04:39:11.943Z,0.31
2023-05-01T04:43:09.069Z,0.39
2023-05-01T04:46:57.529Z,0.58
2023-05-01T04:50:42.170Z,0.83
2023-05-01T04:54:25.579Z,1.09
2023-05-01T04:57:50.171Z,1.38
2023-05-01T05:01:27.859Z,1.61
2023-05-01T05:05:06.107Z,1.83
2023-05-01T05:08:47.576Z,1.98
2023-05-01T05:12:24.232Z,2.15
2023-05-01T05:16:00.066Z,2.29
2023-05-01T05:19:36.354Z,2.44
2023-05-01T05:23:13.929Z,2.66
2023-05-01T05:26:51.913Z,2.89
2023-05-01T05:30:29.758Z,3.10
2023-05-01T05:34:07.070Z,3.33
2023-05-01T05:37:46.038Z,3.57
2023-05-01T05:41:23.277Z,3.82
2023-05-01T05:45:00.418Z,4.05
2023-05-01T05:48:37.619Z,4.27
2023-05-01T05:52:34.199Z,4.50
2023-05-01T05:56:18.350Z,4.73
2023-05-01T06:00:05.041Z,5.00
2023-05-01T06:03:37.476Z,5.24
2023-05-01T06:07:15.081Z,5.53
2023-05-01T06:11:11.255Z,5.83
2023-05-01T06:14:56.222Z,6.22
2023-05-01T06:22:28.922Z,6.73
2023-05-01T06:25:59.214Z,6.92
2023-05-01T06:29:37.171Z,7.16
2023-05-01T06:33:36.861Z,7.42
2023-05-01T06:37:32.126Z,7.71
2023-05-01T06:40:59.171Z,7.90
2023-05-01T06:44:36.017Z,8.01
2023-05-01T06:48:32.221Z,8.12
2023-05-01T06:52:01.088Z,8.32
2023-05-01T06:55:55.728Z,8.42
2023-05-01T06:59:40.787Z,8.56
2023-05-01T07:03:07.863Z,8.68
2023-05-01T07:07:02.705Z,8.79
2023-05-01T07:10:46.533Z,8.96
2023-05-01T07:14:35.021Z,9.03
2023-05-01T07:17:59.338Z,9.20
2023-05-01T07:21:39.193Z,9.27
2023-05-01T07:25:38.925Z,9.38
2023-05-01T07:29:22.272Z,9.51
2023-05-01T07:32:47.429Z,9.66
2023-05-01T07:36:24.821Z,9.77
2023-05-01T07:40:21.226Z,9.89
2023-05-01T07:44:04.379Z,10.00
2023-05-01T07:47:48.901Z,10.20
2023-05-01T07:51:13.162Z,10.33
2023-05-01T07:55:09.886Z,10.46
2023-05-01T07:58:54.741Z,10.61
2023-05-01T08:02:20.756Z,10.73
2023-05-01T08:05:59.100Z,10.80
2023-05-01T08:09:34.918Z,10.89
2023-05-01T08:13:16.453Z,11.00
2023-05-01T08:16:55.512Z,11.10
2023-05-01T08:20:47.568Z,11.22
2023-05-01T08:24:32.181Z,11.39
2023-05-01T08:28:16.860Z,11.53
2023-05-01T08:31:44.175Z,11.58
2023-05-01T08:35:22.110Z,11.72
2023-05-01T08:39:20.255Z,11.85
2023-05-01T08:42:45.255Z,11.95
2023-05-01T08:46:59.884Z,12.04
2023-05-01T08:50:27.514Z,12.20
2023-05-01T08:54:24.824Z,12.35
2023-05-01T08:57:52.631Z,12.50
2023-05-01T09:01:32.666Z,12.57
2023-05-01T09:05:08.398Z,12.71
2023-05-01T09:09:03.177Z,12.87
2023-05-01T09:12:52.024Z,13.02
2023-05-01T09:16:17.140Z,13.12
2023-05-01T09:19:54.795Z,13.26
2023-05-01T09:23:33.147Z,13.33
2023-05-01T09:27:13.521Z,13.39
2023-05-01T09:30:47.751Z,13.38
2023-05-01T09:34:25.371Z,13.47
2023-05-01T09:38:04.791Z,13.59
2023-05-01T09:41:52.494Z,13.66
2023-05-01T09:45:39.407Z,13.81
2023-05-01T09:49:03.708Z,13.91
2023-05-01T09:52:50.024Z,13.91
2023-05-01T09:56:47.143Z,14.12
2023-05-01T10:00:16.690Z,14.34
2023-05-01T10:03:56.904Z,14.56
2023-05-01T10:07:58.293Z,14.69
2023-05-01T10:11:51.439Z,14.88
2023-05-01T10:15:26.240Z,14.99
2023-05-01T10:18:56.061Z,15.14
2023-05-01T10:22:50.144Z,15.31
2023-05-01T10:26:36.414Z,15.44
2023-05-01T10:30:06.437Z,15.62
2023-05-01T10:33:40.646Z,15.70
2023-05-01T10:37:23.266Z,15.70
2023-05-01T10:40:53.931Z,15.78
2023-05-01T10:44:50.454Z,15.96
2023-05-01T10:48:40.156Z,16.02
2023-05-01T10:52:23.361Z,15.99
2023-05-01T10:55:49.727Z,16.07
2023-05-01T11:00:00.933Z,16.11
2023-05-01T11:03:32.169Z,16.46
2023-05-01T11:07:14.238Z,16.52
2023-05-01T11:10:42.796Z,16.58
2023-05-01T11:15:02.894Z,16.41
2023-05-01T11:18:45.852Z,16.64
2023-05-01T11:22:32.429Z,17.03
2023-05-01T11:26:05.022Z,17.18
2023-05-01T11:29:36.836Z,17.22
2023-05-01T11:33:30.952Z,17.54
2023-05-01T11:37:15.285Z,17.77
2023-05-01T11:41:00.554Z,17.67
2023-05-01T11:45:07.809Z,17.69
2023-05-01T11:48:51.962Z,17.82
2023-05-01T11:52:16.501Z,17.69
2023-05-01T11:55:55.688Z,17.93
2023-05-01T11:59:31.912Z,18.11
2023-05-01T12:03:14.264Z,18.23
2023-05-01T12:06:47.875Z,18.14
2023-05-01T12:10:46.046Z,18.19
2023-05-01T12:14:11.136Z,18.49
2023-05-01T12:18:07.752Z,18.52
2023-05-01T12:21:37.902Z,18.71
2023-05-01T12:25:33.381Z,18.93
2023-05-01T12:29:02.542Z,18.81
2023-05-01T12:32:37.225Z,19.04
2023-05-01T12:36:38.437Z,19.33
2023-05-01T12:40:24.173Z,19.66
2023-05-01T12:44:25.331Z,19.42
2023-05-01T12:47:49.323Z,19.48
2023-05-01T12:51:27.590Z,19.70
2023-05-01T12:55:05.875Z,19.81
2023-05-01T12:58:42.203Z,19.87
2023-05-01T13:02:27.629Z,19.94
2023-05-01T13:06:00.768Z,20.01
2023-05-01T13:09:35.270Z,20.29
2023-05-01T13:13:12.931Z,20.72
2023-05-01T13:17:11.300Z,20.70
2023-05-01T13:20:39.095Z,20.72
2023-05-01T13:24:16.954Z,20.73
2023-05-01T13:27:53.355Z,20.80
2023-05-01T13:31:48.176Z,20.74
2023-05-01T13:35:33.350Z,20.54
2023-05-01T13:38:59.973Z,20.48
2023-05-01T13:42:57.476Z,20.73
2023-05-01T13:46:26.747Z,21.04
2023-05-01T13:50:01.901Z,20.97
2023-05-01T13:53:45.148Z,21.04
2023-05-01T13:57:17.380Z,21.03
2023-05-01T14:01:20.123Z,21.27
2023-05-01T14:05:08.847Z,21.47
2023-05-01T14:08:33.943Z,21.58
2023-05-01T14:12:31.713Z,21.49
2023-05-01T14:16:24.664Z,21.52
2023-05-01T14:20:09.746Z,21.46
2023-05-01T14:23:35.189Z,21.52
2023-05-01T14:27:31.101Z,21.57
2023-05-01T14:31:26.678Z,21.76
2023-05-01T14:35:10.170Z,21.78
2023-05-01T14:38:39.462Z,21.85
2023-05-01T14:42:34.323Z,21.80
2023-05-01T14:46:00.937Z,21.73
2023-05-01T14:49:41.347Z,21.80
2023-05-01T14:53:34.648Z,21.77
2023-05-01T14:57:01.284Z,21.71
2023-05-01T15:00:56.741Z,21.47
2023-05-01T15:04:23.007Z,21.43
2023-05-01T15:08:01.576Z,21.52
2023-05-01T15:11:36.474Z,21.59
2023-05-01T15:15:14.010Z,21.70
2023-05-01T15:18:53.225Z,21.57
2023-05-01T15:22:48.638Z,21.60
2023-05-01T15:26:14.651Z,21.56
2023-05-01T15:30:11.312Z,21.43
2023-05-01T15:33:36.245Z,21.25
2023-05-01T15:37:16.456Z,20.98
2023-05-01T15:40:52.176Z,20.77
2023-05-01T15:44:28.762Z,20.47
2023-05-01T15:48:25.594Z,20.27
2023-05-01T15:52:10.751Z,20.07
2023-05-01T15:55:36.903Z,19.91
2023-05-01T15:59:32.334Z,19.90
2023-05-01T16:02:57.452Z,19.81
2023-05-01T16:06:56.881Z,19.74
2023-05-01T16:10:25.597Z,19.71
2023-05-01T16:14:19.200Z,19.52
2023-05-01T16:18:04.453Z,19.44
2023-05-01T16:21:49.791Z,19.28
2023-05-01T16:25:14.556Z,18.95
2023-05-01T16:28:53.219Z,18.73
2023-05-01T16:32:29.608Z,18.59
2023-05-01T16:36:27.362Z,18.46
2023-05-01T16:39:53.573Z,18.38
2023-05-01T16:43:30.416Z,18.25
2023-05-01T16:47:27.118Z,18.12
2023-05-01T16:51:13.079Z,17.97
2023-05-01T16:54:38.268Z,17.82
2023-05-01T16:58:16.654Z,17.69
2023-05-01T17:01:53.864Z,17.59
2023-05-01T17:05:31.247Z,17.44
2023-05-01T17:09:13.068Z,17.30
2023-05-01T17:12:52.195Z,17.21
2023-05-01T17:16:30.211Z,17.15
2023-05-01T17:20:26.447Z,17.04
2023-05-01T17:23:52.299Z,16.90
2023-05-01T17:27:47.429Z,16.71
2023-05-01T17:31:31.346Z,16.54
2023-05-01T17:35:15.989Z,16.32
2023-05-01T17:39:00.646Z,16.12
2023-05-01T17:42:26.810Z,15.88
2023-05-01T17:46:05.029Z,15.70
2023-05-01T17:49:40.232Z,15.46
2023-05-01T17:53:17.993Z,15.33
2023-05-01T17:56:55.773Z,15.20
2023-05-01T18:00:33.677Z,15.01
2023-05-01T18:04:30.423Z,14.85
2023-05-01T18:07:56.285Z,14.66
2023-05-01T18:11:51.840Z,14.45
2023-05-01T18:15:38.002Z,14.27
2023-05-01T18:19:22.626Z,14.11
2023-05-01T18:23:06.241Z,13.94
2023-05-01T18:26:30.876Z,13.82
2023-05-01T18:30:27.329Z,13.66
2023-05-01T18:34:11.642Z,13.49
2023-05-01T18:37:37.558Z,13.34
2023-05-01T18:41:34.110Z,13.21
2023-05-01T18:44:58.634Z,13.01
2023-05-01T18:48:58.481Z,12.87
2023-05-01T18:52:23.689Z,12.76
2023-05-01T18:56:23.611Z,12.70
2023-05-01T19:00:08.567Z,12.64
2023-05-01T19:03:33.456Z,12.52
2023-05-01T19:07:30.245Z,12.36
2023-05-01T19:10:54.596Z,12.21
2023-05-01T19:14:51.382Z,12.06
2023-05-01T19:18:18.088Z,11.91
2023-05-01T19:22:12.792Z,11.80
2023-05-01T19:25:56.104Z,11.68
2023-05-01T19:29:42.191Z,11.54
2023-05-01T19:33:11.816Z,11.41
2023-05-01T19:36:54.837Z,11.32
2023-05-01T19:40:45.304Z,11.28
2023-05-01T19:44:09.617Z,11.23
2023-05-01T19:48:06.556Z,11.19
2023-05-01T19:51:34.629Z,11.14
2023-05-01T19:55:13.282Z,11.11
2023-05-01T19:59:09.274Z,11.10
2023-05-01T20:02:52.950Z,11.08
2023-05-01T20:06:17.859Z,11.03
2023-05-01T20:09:55.611Z,10.99
2023-05-01T20:13:33.613Z,10.95
2023-05-01T20:17:29.596Z,10.92
2023-05-01T20:20:54.458Z,10.89
2023-05-01T20:24:32.715Z,10.83
2023-05-01T20:28:28.745Z,10.79
2023-05-01T20:32:13.385Z,10.79
2023-05-01T20:35:57.429Z,10.75
2023-05-01T20:39:41.822Z,10.71
2023-05-01T20:43:25.531Z,10.63
2023-05-01T20:47:10.682Z,10.56
2023-05-01T20:50:56.451Z,10.50
2023-05-01T20:54:39.883Z,10.44
2023-05-01T20:58:04.197Z,10.40
2023-05-01T21:01:41.997Z,10.31
2023-05-01T21:05:19.840Z,10.23
2023-05-01T21:09:16.493Z,10.18
2023-05-01T21:12:40.982Z,10.13
2023-05-01T21:16:19.792Z,10.12
2023-05-01T21:20:21.144Z,10.12
2023-05-01T21:24:06.716Z,10.12
2023-05-01T21:27:56.421Z,10.08
2023-05-01T21:31:21.627Z,9.87
2023-05-01T21:35:20.666Z,9.65
2023-05-01T21:39:04.588Z,9.52
2023-05-01T21:42:51.179Z,9.38
2023-05-01T21:46:36.538Z,9.11
2023-05-01T21:50:01.109Z,8.95
2023-05-01T21:53:59.405Z,8.74
2023-05-01T21:57:43.143Z,8.48
2023-05-01T22:01:12.290Z,8.27
2023-05-01T22:05:05.616Z,8.17
2023-05-01T22:08:30.329Z,8.09
2023-05-01T22:12:26.837Z,8.07
2023-05-01T22:16:12.092Z,8.08
2023-05-01T22:19:37.777Z,8.08
2023-05-01T22:23:34.444Z,8.08
2023-05-01T22:27:19.187Z,8.11
2023-05-01T22:30:45.131Z,8.15
2023-05-01T22:34:41.584Z,8.19
2023-05-01T22:38:06.397Z,8.23
2023-05-01T22:41:43.931Z,8.27
2023-05-01T22:45:42.135Z,8.27
2023-05-01T22:49:12.816Z,8.29
2023-05-01T22:53:03.600Z,8.30
2023-05-01T22:56:28.658Z,8.30
2023-05-01T23:00:24.568Z,8.29
2023-05-01T23:03:50.832Z,8.28
2023-05-01T23:07:46.115Z,8.29
2023-05-01T23:11:18.169Z,8.27
2023-05-01T23:15:10.054Z,8.26
2023-05-01T23:18:55.237Z,8.25
2023-05-01T23:22:22.205Z,8.24
2023-05-01T23:25:57.658Z,8.20
2023-05-01T23:29:57.188Z,8.16
2023-05-01T23:33:26.430Z,8.13
2023-05-01T23:36:59.853Z,8.10
2023-05-01T23:40:39.711Z,8.07
2023-05-01T23:44:34.555Z,8.07
2023-05-01T23:48:19.146Z,8.05
2023-05-01T23:51:44.401Z,8.02
2023-05-01T23:55:23.580Z,8.00
2023-05-01T23:59:01.443Z,7.99
